createdAt,value
2024-05-09T00:03:00.894Z,63.49
2024-05-09T00:08:06.017Z,63.66
2024-05-09T00:13:10.908Z,64.10
2024-05-09T00:18:14.355Z,64.74
2024-05-09T00:23:17.247Z,65.07
2024-05-09T00:28:20.115Z,65.44
2024-05-09T00:33:23.150Z,65.35
2024-05-09T00:38:26.046Z,65.93
2024-05-09T00:43:28.818Z,66.06
2024-05-09T00:48:32.016Z,66.53
2024-05-09T00:53:35.127Z,66.55
2024-05-09T00:58:38.850Z,66.28
2024-05-09T01:03:41.864Z,66.15
2024-05-09T01:08:44.834Z,66.30
2024-05-09T01:13:47.627Z,66.46
2024-05-09T01:18:50.613Z,66.65
2024-05-09T01:23:53.483Z,66.71
2024-05-09T01:28:56.106Z,66.74
2024-05-09T01:33:59.031Z,66.92
2024-05-09T01:39:02.016Z,66.96
2024-05-09T01:44:04.858Z,67.26
2024-05-09T01:49:08.262Z,67.69
2024-05-09T01:54:11.186Z,67.65
2024-05-09T01:59:14.020Z,67.70
2024-05-09T02:04:17.081Z,67.67
2024-05-09T02:09:19.926Z,67.65
2024-05-09T02:14:22.895Z,68.14
2024-05-09T02:19:25.788Z,68.46
2024-05-09T02:24:28.532Z,68.19
2024-05-09T02:29:31.484Z,67.72
2024-05-09T02:34:34.362Z,68.07
2024-05-09T02:39:37.038Z,68.27
2024-05-09T02:44:39.864Z,68.38
2024-05-09T02:49:42.547Z,68.57
2024-05-09T02:54:45.446Z,68.58
2024-05-09T02:59:48.137Z,68.85
2024-05-09T03:04:50.935Z,69.24
2024-05-09T03:09:53.739Z,69.26
2024-05-09T03:14:56.442Z,69.18
2024-05-09T03:19:59.837Z,68.88
2024-05-09T03:25:02.764Z,68.69
2024-05-09T03:30:07.530Z,68.76
2024-05-09T03:35:10.457Z,68.79
2024-05-09T03:40:20.472Z,68.84
2024-05-09T03:45:26.474Z,69.18
2024-05-09T03:50:33.945Z,69.43
2024-05-09T03:55:39.062Z,69.69
2024-05-09T04:00:44.907Z,69.99
2024-05-09T04:05:47.864Z,70.32
2024-05-09T04:10:50.639Z,70.28
2024-05-09T04:15:53.400Z,70.73
2024-05-09T04:20:56.937Z,71.12
2024-05-09T04:26:04.200Z,71.22
2024-05-09T04:31:06.926Z,70.96
2024-05-09T04:36:09.625Z,70.91
2024-05-09T04:41:12.503Z,71.43
2024-05-09T04:46:15.161Z,71.77
2024-05-09T04:51:17.868Z,72.23
2024-05-09T04:56:20.783Z,72.47
2024-05-09T05:01:23.597Z,72.82
2024-05-09T05:06:26.276Z,73.41
2024-05-09T05:11:29.034Z,73.30
2024-05-09T05:16:31.731Z,73.00
2024-05-09T05:21:34.442Z,72.95
2024-05-09T05:26:37.262Z,72.80
2024-05-09T05:31:43.460Z,72.61
2024-05-09T05:36:46.309Z,71.81
2024-05-09T05:41:49.073Z,70.13
2024-05-09T05:46:51.953Z,68.67
2024-05-09T05:51:54.688Z,67.16
2024-05-09T05:56:58.918Z,65.80
2024-05-09T06:02:02.237Z,64.77
2024-05-09T06:07:07.496Z,64.27
2024-05-09T06:12:10.409Z,63.45
2024-05-09T06:17:22.374Z,62.97
2024-05-09T06:22:25.450Z,61.82
2024-05-09T06:27:28.310Z,60.99
2024-05-09T06:32:31.239Z,60.33
2024-05-09T06:37:37.112Z,59.32
2024-05-09T06:42:39.925Z,58.71
2024-05-09T06:47:42.938Z,56.10
2024-05-09T06:52:48.738Z,54.16
2024-05-09T06:57:51.683Z,52.91
2024-05-09T07:02:54.830Z,53.13
2024-05-09T07:07:59.417Z,50.72
2024-05-09T07:13:02.438Z,48.92
2024-05-09T07:18:17.153Z,48.68
2024-05-09T07:23:21.561Z,48.11
2024-05-09T07:28:24.996Z,47.54
2024-05-09T07:33:28.189Z,46.55
2024-05-09T07:38:31.310Z,45.59
2024-05-09T07:43:35.933Z,45.58
2024-05-09T07:53:50.650Z,43.79
2024-05-09T07:58:56.577Z,43.89
2024-05-09T08:03:59.514Z,41.92
2024-05-09T08:09:07.684Z,40.95
2024-05-09T08:14:13.481Z,40.17
2024-05-09T08:19:16.174Z,39.56
2024-05-09T08:24:18.903Z,39.07
2024-05-09T08:29:22.106Z,38.46
2024-05-09T08:34:26.238Z,38.36
2024-05-09T08:39:29.734Z,37.70
2024-05-09T08:44:37.308Z,37.41
2024-05-09T08:49:41.657Z,37.38
2024-05-09T08:54:46.332Z,36.76
2024-05-09T08:59:50.843Z,36.43
2024-05-09T09:05:05.457Z,36.75
2024-05-09T09:10:08.816Z,36.38
2024-05-09T09:15:11.514Z,35.89
2024-05-09T09:20:18.888Z,35.36
2024-05-09T09:25:25.763Z,34.83
2024-05-09T09:30:36.168Z,34.83
2024-05-09T09:54:44.728Z,33.17
2024-05-09T09:59:50.448Z,33.21
2024-05-09T10:04:54.598Z,33.26
2024-05-09T10:09:57.911Z,32.81
2024-05-09T10:15:07.897Z,33.36
2024-05-09T10:20:18.318Z,32.50
2024-05-09T10:25:25.027Z,32.33
2024-05-09T10:30:34.042Z,32.16
2024-05-09T10:35:39.352Z,32.28
2024-05-09T10:40:44.293Z,32.26
2024-05-09T10:45:50.509Z,32.13
2024-05-09T10:50:53.348Z,31.66
2024-05-09T10:56:06.107Z,32.04
2024-05-09T11:01:09.837Z,32.25
2024-05-09T11:06:14.865Z,31.50
2024-05-09T11:11:17.772Z,31.60
2024-05-09T11:16:21.254Z,31.25
2024-05-09T11:21:24.672Z,30.32
2024-05-09T11:26:29.249Z,30.82
2024-05-09T11:31:32.083Z,30.52
2024-05-09T11:36:34.896Z,30.94
2024-05-09T11:41:38.859Z,31.11
2024-05-09T11:52:21.164Z,30.58
2024-05-09T11:57:24.502Z,30.71
2024-05-09T12:02:27.302Z,30.73
2024-05-09T12:07:30.152Z,30.37
2024-05-09T12:12:34.262Z,30.76
2024-05-09T12:17:38.243Z,30.77
2024-05-09T12:22:40.998Z,30.54
2024-05-09T12:27:43.914Z,30.69
2024-05-09T12:32:46.694Z,31.94
2024-05-09T12:37:49.607Z,32.04
2024-05-09T12:42:52.374Z,31.42
2024-05-09T12:47:55.446Z,31.34
2024-05-09T12:52:58.459Z,31.74
2024-05-09T12:58:01.261Z,31.72
2024-05-09T13:03:04.407Z,31.24
2024-05-09T13:08:08.117Z,30.58
2024-05-09T13:13:11.451Z,30.96
2024-05-09T13:18:14.257Z,31.15
2024-05-09T13:23:16.940Z,31.18
2024-05-09T13:28:19.682Z,31.47
2024-05-09T13:33:22.847Z,31.55
2024-05-09T13:38:25.983Z,31.48
2024-05-09T13:43:28.767Z,31.53
2024-05-09T13:48:31.834Z,30.91
2024-05-09T13:53:34.592Z,31.29
2024-05-09T13:58:37.404Z,31.31
2024-05-09T14:03:40.275Z,31.62
2024-05-09T14:08:46.938Z,31.64
2024-05-09T14:13:49.793Z,31.13
2024-05-09T14:18:55.510Z,30.78
2024-05-09T14:24:01.222Z,30.97
2024-05-09T14:29:03.951Z,30.73
2024-05-09T14:34:06.767Z,29.96
2024-05-09T14:39:09.743Z,29.96
2024-05-09T14:44:12.845Z,29.69
2024-05-09T14:49:15.557Z,30.05
2024-05-09T14:54:18.352Z,30.33
2024-05-09T14:59:20.982Z,30.47
2024-05-09T15:04:23.996Z,30.34
2024-05-09T15:09:26.951Z,30.93
2024-05-09T15:14:29.755Z,31.13
2024-05-09T15:19:32.931Z,30.55
2024-05-09T15:24:36.098Z,30.18
2024-05-09T15:29:39.314Z,30.06
2024-05-09T15:34:42.781Z,29.87
2024-05-09T15:39:45.534Z,29.86
2024-05-09T15:44:53.121Z,29.94
2024-05-09T15:49:56.390Z,29.93
2024-05-09T15:54:59.552Z,30.27
2024-05-09T16:00:02.721Z,30.47
2024-05-09T16:05:07.637Z,30.42
2024-05-09T16:10:13.209Z,30.67
2024-05-09T16:15:18.929Z,31.05
2024-05-09T16:20:33.977Z,31.34
2024-05-09T16:25:47.725Z,31.95
2024-05-09T16:30:51.337Z,31.93
2024-05-09T16:35:54.023Z,32.47
2024-05-09T16:40:56.828Z,33.10
2024-05-09T16:45:59.621Z,33.17
2024-05-09T16:51:02.306Z,33.57
2024-05-09T16:56:06.345Z,33.70
2024-05-09T17:01:09.083Z,34.11
2024-05-09T17:06:12.232Z,34.56
2024-05-09T17:11:15.569Z,34.93
2024-05-09T17:16:18.756Z,35.39
2024-05-09T17:21:21.665Z,35.63
2024-05-09T17:26:24.562Z,35.49
2024-05-09T17:31:27.454Z,35.85
2024-05-09T17:36:30.449Z,36.07
2024-05-09T17:41:33.169Z,36.64
2024-05-09T17:46:36.209Z,37.04
2024-05-09T17:51:39.019Z,37.89
2024-05-09T17:56:44.343Z,38.30
2024-05-09T18:01:47.244Z,38.38
2024-05-09T18:06:50.839Z,38.34
2024-05-09T18:11:54.001Z,38.83
2024-05-09T18:16:56.898Z,38.88
2024-05-09T18:21:59.582Z,39.31
2024-05-09T18:27:02.704Z,40.17
2024-05-09T18:32:06.031Z,40.97
2024-05-09T18:37:09.779Z,41.11
2024-05-09T18:42:12.624Z,41.39
2024-05-09T18:47:19.315Z,41.78
2024-05-09T18:52:23.872Z,41.94
2024-05-09T18:57:26.555Z,42.15
2024-05-09T19:02:29.467Z,42.37
2024-05-09T19:07:32.257Z,42.51
2024-05-09T19:12:34.992Z,42.92
2024-05-09T19:17:37.880Z,43.59
2024-05-09T19:22:40.663Z,44.08
2024-05-09T19:27:43.684Z,44.06
2024-05-09T19:32:46.594Z,44.61
2024-05-09T19:37:51.539Z,44.94
2024-05-09T19:42:54.259Z,45.38
2024-05-09T19:47:57.527Z,46.15
2024-05-09T19:53:00.338Z,46.75
2024-05-09T19:58:05.383Z,46.99
2024-05-09T20:03:09.919Z,47.39
2024-05-09T20:08:13.444Z,47.45
2024-05-09T20:13:16.304Z,47.66
2024-05-09T20:18:19.231Z,47.92
2024-05-09T20:23:22.068Z,48.34
2024-05-09T20:28:24.799Z,48.80
2024-05-09T20:33:28.700Z,49.04
2024-05-09T20:38:31.399Z,48.91
2024-05-09T20:43:34.122Z,49.57
2024-05-09T20:48:37.082Z,49.30
2024-05-09T20:53:39.891Z,49.59
2024-05-09T20:58:42.588Z,50.11
2024-05-09T21:03:45.373Z,50.62
2024-05-09T21:08:48.436Z,52.08
2024-05-09T21:13:51.357Z,53.42
2024-05-09T21:18:54.037Z,54.35
2024-05-09T21:23:56.795Z,54.90
2024-05-09T21:28:59.615Z,55.62
2024-05-09T21:34:02.428Z,55.86
2024-05-09T21:39:05.407Z,56.72
2024-05-09T21:44:08.214Z,56.49
2024-05-09T21:49:11.175Z,56.73
2024-05-09T21:54:14.144Z,56.49
2024-05-09T21:59:16.914Z,56.71
2024-05-09T22:04:19.735Z,56.62
2024-05-09T22:09:22.717Z,56.74
2024-05-09T22:14:25.518Z,56.62
2024-05-09T22:19:29.813Z,56.79
2024-05-09T22:24:32.939Z,57.64
2024-05-09T22:29:35.668Z,58.09
2024-05-09T22:34:38.430Z,58.44
2024-05-09T22:39:41.188Z,59.31
2024-05-09T22:44:43.968Z,59.84
2024-05-09T22:49:46.612Z,59.94
2024-05-09T22:54:49.433Z,60.38
2024-05-09T22:59:52.476Z,60.50
2024-05-09T23:04:55.398Z,60.24
2024-05-09T23:09:58.564Z,60.10
2024-05-09T23:15:01.293Z,60.47
2024-05-09T23:20:06.852Z,60.69
2024-05-09T23:25:09.789Z,60.74
2024-05-09T23:30:18.318Z,61.12
2024-05-09T23:35:29.084Z,61.18
2024-05-09T23:45:37.743Z,60.14
2024-05-09T23:50:41.109Z,59.31
2024-05-09T23:55:44.585Z,59.23
